createdAt,value
2023-09-14T00:02:08.972Z,86.04
2023-09-14T00:05:13.834Z,86.76
2023-09-14T00:08:16.635Z,87.09
2023-09-14T00:11:20.831Z,87.27
2023-09-14T00:14:23.880Z,86.77
2023-09-14T00:17:26.781Z,86.68
2023-09-14T00:20:32.623Z,86.60
2023-09-14T00:23:35.515Z,86.73
2023-09-14T00:26:38.269Z,86.34
2023-09-14T00:29:41.124Z,86.58
2023-09-14T00:32:44.123Z,86.27
2023-09-14T00:35:49.005Z,87.50
2023-09-14T00:38:51.863Z,87.85
2023-09-14T00:41:54.876Z,88.35
2023-09-14T00:44:57.805Z,88.32
2023-09-14T00:48:03.454Z,88.26
2023-09-14T00:51:09.008Z,88.48
2023-09-14T00:54:12.855Z,88.43
2023-09-14T00:57:16.962Z,88.59
2023-09-14T01:00:20.202Z,89.13
2023-09-14T01:03:25.153Z,89.15
2023-09-14T01:06:29.761Z,88.66
2023-09-14T01:09:33.119Z,88.69
2023-09-14T01:12:36.241Z,88.93
2023-09-14T01:15:43.003Z,88.64
2023-09-14T01:18:53.482Z,88.64
2023-09-14T01:22:17.906Z,89.14
2023-09-14T01:25:26.156Z,89.73
2023-09-14T01:28:30.734Z,89.68
2023-09-14T01:31:33.824Z,89.40
2023-09-14T01:34:36.903Z,89.24
2023-09-14T01:37:40.381Z,89.43
2023-09-14T01:40:46.428Z,90.02
2023-09-14T01:43:53.553Z,90.22
2023-09-14T01:46:56.937Z,90.29
2023-09-14T01:49:59.891Z,90.26
2023-09-14T01:53:02.868Z,90.49
2023-09-14T01:56:06.077Z,89.96
2023-09-14T01:59:10.425Z,89.67
2023-09-14T02:02:13.515Z,89.82
2023-09-14T02:05:16.565Z,89.52
2023-09-14T02:08:19.353Z,89.70
2023-09-14T02:11:22.246Z,89.54
2023-09-14T02:14:26.481Z,89.25
2023-09-14T02:17:30.922Z,88.30
2023-09-14T02:20:36.097Z,88.19
2023-09-14T02:23:38.905Z,88.21
2023-09-14T02:26:41.688Z,88.11
2023-09-14T02:29:45.964Z,88.47
2023-09-14T02:32:48.874Z,88.30
2023-09-14T02:35:52.522Z,88.38
2023-09-14T02:38:55.518Z,88.49
2023-09-14T02:41:58.290Z,87.44
2023-09-14T02:45:02.437Z,87.94
2023-09-14T02:48:05.681Z,87.74
2023-09-14T02:51:08.602Z,88.48
2023-09-14T02:54:11.350Z,88.32
2023-09-14T02:57:14.282Z,88.68
2023-09-14T03:00:19.325Z,88.76
2023-09-14T03:03:22.240Z,89.67
2023-09-14T03:06:25.416Z,90.11
2023-09-14T03:09:28.147Z,89.18
2023-09-14T03:12:31.081Z,89.79
2023-09-14T03:15:36.282Z,89.40
2023-09-14T03:18:39.284Z,89.26
2023-09-14T03:21:42.254Z,89.32
2023-09-14T03:24:45.102Z,89.50
2023-09-14T03:27:50.164Z,89.03
2023-09-14T03:30:54.537Z,88.00
2023-09-14T03:33:57.446Z,88.21
2023-09-14T03:37:00.280Z,88.77
2023-09-14T03:40:03.087Z,88.37
2023-09-14T03:43:06.312Z,89.15
2023-09-14T03:46:11.314Z,90.13
2023-09-14T03:49:14.323Z,89.81
2023-09-14T03:52:17.107Z,90.11
2023-09-14T03:55:20.288Z,90.45
2023-09-14T03:58:24.212Z,90.85
2023-09-14T04:01:28.455Z,91.77
2023-09-14T04:04:31.412Z,91.50
2023-09-14T04:07:34.301Z,91.16
2023-09-14T04:10:38.910Z,91.82
2023-09-14T04:13:41.829Z,90.92
2023-09-14T04:16:46.294Z,91.36
2023-09-14T04:19:49.157Z,91.01
2023-09-14T04:22:52.406Z,90.94
2023-09-14T04:25:55.986Z,91.58
2023-09-14T04:28:58.948Z,91.83
2023-09-14T04:32:04.664Z,92.22
2023-09-14T04:35:09.229Z,91.97
2023-09-14T04:38:12.682Z,90.84
2023-09-14T04:41:15.686Z,90.84
2023-09-14T04:44:18.668Z,90.98
2023-09-14T04:47:22.761Z,92.19
2023-09-14T04:50:25.646Z,92.46
2023-09-14T04:53:29.392Z,92.85
2023-09-14T04:56:32.415Z,92.62
2023-09-14T04:59:35.103Z,93.96
2023-09-14T05:02:40.160Z,93.89
2023-09-14T05:05:43.240Z,94.26
2023-09-14T05:08:46.299Z,94.17
2023-09-14T05:11:49.256Z,94.95
2023-09-14T05:14:52.046Z,95.14
2023-09-14T05:17:56.877Z,94.61
2023-09-14T05:20:59.801Z,95.35
2023-09-14T05:24:02.772Z,95.22
2023-09-14T05:27:06.324Z,95.08
2023-09-14T05:30:11.199Z,94.72
2023-09-14T05:33:15.999Z,94.73
2023-09-14T05:36:18.812Z,94.42
2023-09-14T05:39:21.898Z,94.53
2023-09-14T05:42:24.916Z,94.62
2023-09-14T05:45:28.336Z,93.98
2023-09-14T05:48:32.699Z,93.20
2023-09-14T05:51:35.603Z,93.40
2023-09-14T05:54:38.540Z,93.51
2023-09-14T05:57:41.543Z,93.36
2023-09-14T06:00:44.759Z,92.26
2023-09-14T06:03:49.559Z,91.38
2023-09-14T06:06:52.518Z,91.47
2023-09-14T06:09:55.487Z,91.01
2023-09-14T06:12:58.449Z,90.93
2023-09-14T06:16:01.497Z,90.89
2023-09-14T06:19:05.969Z,90.90
2023-09-14T06:22:10.049Z,91.11
2023-09-14T06:25:12.877Z,89.70
2023-09-14T06:28:15.854Z,89.55
2023-09-14T06:31:18.694Z,89.15
2023-09-14T06:34:22.854Z,88.68
2023-09-14T06:37:25.666Z,87.41
2023-09-14T06:40:28.644Z,86.55
2023-09-14T06:43:31.591Z,85.33
2023-09-14T06:46:34.526Z,85.33
2023-09-14T06:49:38.692Z,85.63
2023-09-14T06:52:41.586Z,85.67
2023-09-14T06:55:44.611Z,85.24
2023-09-14T06:58:47.413Z,85.66
2023-09-14T07:01:51.227Z,85.79
2023-09-14T07:04:56.157Z,84.85
2023-09-14T07:07:58.939Z,85.02
2023-09-14T07:11:01.931Z,84.91
2023-09-14T07:14:05.112Z,84.72
2023-09-14T07:17:08.432Z,84.52
2023-09-14T07:20:13.470Z,84.65
2023-09-14T07:23:16.491Z,84.64
2023-09-14T07:26:19.273Z,84.37
2023-09-14T07:29:22.852Z,84.35
2023-09-14T07:32:25.668Z,83.74
2023-09-14T07:35:29.806Z,83.52
2023-09-14T07:38:32.711Z,82.81
2023-09-14T07:41:35.753Z,82.68
2023-09-14T07:44:38.606Z,82.55
2023-09-14T07:47:41.729Z,81.59
2023-09-14T07:50:46.118Z,80.73
2023-09-14T07:53:48.954Z,80.41
2023-09-14T07:56:51.708Z,80.23
2023-09-14T07:59:54.552Z,79.88
2023-09-14T08:02:57.365Z,80.71
2023-09-14T08:06:03.117Z,80.79
2023-09-14T08:09:06.035Z,80.71
2023-09-14T08:12:09.288Z,80.31
2023-09-14T08:15:13.438Z,79.63
2023-09-14T08:18:16.480Z,79.77
2023-09-14T08:21:21.029Z,79.81
2023-09-14T08:24:24.011Z,79.47
2023-09-14T08:27:27.792Z,79.06
2023-09-14T08:30:30.635Z,78.85
2023-09-14T08:33:33.942Z,78.92
2023-09-14T08:36:40.545Z,79.17
2023-09-14T08:39:43.380Z,79.55
2023-09-14T08:42:49.740Z,78.84
2023-09-14T08:45:54.915Z,78.75
2023-09-14T08:49:00.901Z,78.15
2023-09-14T08:52:09.468Z,78.47
2023-09-14T08:55:13.854Z,77.64
2023-09-14T08:58:18.413Z,78.11
2023-09-14T09:01:21.367Z,77.36
2023-09-14T09:04:27.559Z,77.70
2023-09-14T09:07:32.528Z,78.05
2023-09-14T09:10:35.872Z,78.10
2023-09-14T09:13:44.387Z,77.38
2023-09-14T09:16:47.417Z,76.75
2023-09-14T09:19:54.031Z,76.62
2023-09-14T09:23:00.962Z,76.02
2023-09-14T09:26:04.735Z,76.66
2023-09-14T09:29:17.763Z,76.17
2023-09-14T09:32:23.856Z,76.18
2023-09-14T09:35:28.230Z,76.02
2023-09-14T09:38:41.377Z,76.69
2023-09-14T09:41:47.487Z,76.69
2023-09-14T09:44:50.562Z,75.89
2023-09-14T09:47:54.609Z,75.40
2023-09-14T09:50:57.961Z,76.11
2023-09-14T09:54:06.032Z,74.90
2023-09-14T09:57:09.325Z,74.21
2023-09-14T10:00:14.504Z,73.87
2023-09-14T10:03:26.362Z,74.16
2023-09-14T10:06:29.260Z,74.84
2023-09-14T10:09:36.242Z,74.89
2023-09-14T10:12:40.989Z,74.78
2023-09-14T10:15:44.455Z,74.30
2023-09-14T10:18:49.173Z,73.36
2023-09-14T10:21:54.824Z,74.12
2023-09-14T10:25:00.965Z,74.62
2023-09-14T10:28:06.348Z,74.38
2023-09-14T10:31:11.942Z,74.36
2023-09-14T10:34:19.404Z,73.66
2023-09-14T10:37:22.594Z,71.76
2023-09-14T10:40:29.868Z,71.07
2023-09-14T10:43:33.428Z,70.35
2023-09-14T10:46:42.830Z,70.17
2023-09-14T10:49:47.137Z,68.38
2023-09-14T10:52:50.159Z,63.80
2023-09-14T10:55:54.671Z,63.64
2023-09-14T10:58:57.528Z,63.27
2023-09-14T11:02:15.447Z,61.79
2023-09-14T11:05:25.694Z,61.59
2023-09-14T11:08:31.854Z,61.89
2023-09-14T11:11:41.685Z,61.76
2023-09-14T11:15:15.509Z,62.62
2023-09-14T11:18:19.194Z,62.37
2023-09-14T11:21:52.279Z,62.63
2023-09-14T11:24:56.466Z,62.37
2023-09-14T11:28:01.194Z,62.16
2023-09-14T11:31:04.768Z,61.71
2023-09-14T11:34:15.203Z,61.53
2023-09-14T11:37:20.555Z,61.94
2023-09-14T11:40:35.718Z,62.01
2023-09-14T11:44:36.551Z,58.69
2023-09-14T11:47:35.003Z,56.26
2023-09-14T11:50:45.836Z,56.98
2023-09-14T11:53:49.786Z,57.23
2023-09-14T11:56:56.838Z,55.81
2023-09-14T12:00:01.654Z,57.00
2023-09-14T12:03:05.155Z,56.34
2023-09-14T12:06:09.202Z,56.74
2023-09-14T12:09:25.396Z,56.89
2023-09-14T12:12:35.870Z,57.77
2023-09-14T12:15:41.023Z,57.87
2023-09-14T12:18:44.446Z,57.72
2023-09-14T12:21:47.513Z,58.30
2023-09-14T12:24:51.598Z,56.76
2023-09-14T12:27:54.658Z,54.43
2023-09-14T12:30:59.145Z,53.22
2023-09-14T12:34:02.123Z,53.13
2023-09-14T12:37:05.631Z,52.68
2023-09-14T12:40:11.667Z,52.47
2023-09-14T12:43:18.966Z,49.56
2023-09-14T12:46:25.550Z,50.77
2023-09-14T12:49:28.891Z,50.28
2023-09-14T12:52:33.274Z,50.70
2023-09-14T12:55:40.141Z,50.09
2023-09-14T12:58:43.299Z,49.06
2023-09-14T13:01:47.536Z,49.60
2023-09-14T13:04:50.465Z,48.95
2023-09-14T13:07:55.912Z,49.61
2023-09-14T13:10:58.938Z,49.61
2023-09-14T13:14:01.893Z,49.14
2023-09-14T13:17:06.136Z,48.96
2023-09-14T13:20:11.676Z,48.66
2023-09-14T13:23:14.897Z,49.65
2023-09-14T13:26:17.742Z,49.45
2023-09-14T13:29:20.478Z,49.26
2023-09-14T13:32:25.169Z,49.71
2023-09-14T13:35:29.228Z,51.78
2023-09-14T13:38:32.219Z,51.93
2023-09-14T13:41:35.355Z,51.51
2023-09-14T13:44:38.199Z,51.88
2023-09-14T13:47:42.516Z,50.58
2023-09-14T13:50:45.540Z,52.08
2023-09-14T13:53:48.715Z,50.94
2023-09-14T13:56:51.734Z,50.83
2023-09-14T13:59:54.790Z,51.17
2023-09-14T14:03:09.994Z,52.10
2023-09-14T14:06:12.882Z,51.57
2023-09-14T14:09:18.536Z,52.84
2023-09-14T14:12:21.332Z,53.38
2023-09-14T14:15:25.245Z,51.07
2023-09-14T14:18:29.441Z,50.57
2023-09-14T14:21:32.189Z,51.31
2023-09-14T14:24:36.171Z,51.96
2023-09-14T14:27:42.210Z,51.75
2023-09-14T14:30:45.526Z,52.26
2023-09-14T14:33:49.821Z,52.99
2023-09-14T14:36:52.769Z,54.28
2023-09-14T14:39:55.883Z,52.66
2023-09-14T14:42:59.151Z,52.46
2023-09-14T14:46:02.502Z,53.12
2023-09-14T14:49:07.769Z,52.01
2023-09-14T14:52:10.688Z,50.45
2023-09-14T14:55:13.645Z,51.97
2023-09-14T14:58:16.543Z,51.72
2023-09-14T15:01:19.421Z,49.14
2023-09-14T15:04:23.544Z,48.53
2023-09-14T15:07:26.335Z,51.16
2023-09-14T15:10:29.197Z,50.48
2023-09-14T15:13:32.461Z,51.88
2023-09-14T15:16:35.408Z,52.21
2023-09-14T15:19:39.712Z,52.03
2023-09-14T15:22:42.968Z,52.66
2023-09-14T15:25:47.942Z,51.86
2023-09-14T15:28:51.168Z,52.21
2023-09-14T15:31:54.344Z,52.11
2023-09-14T15:34:58.730Z,50.81
2023-09-14T15:38:01.700Z,52.63
2023-09-14T15:41:04.875Z,53.01
2023-09-14T15:44:09.196Z,52.55
2023-09-14T15:47:12.115Z,51.67
2023-09-14T15:50:16.524Z,52.36
2023-09-14T15:53:19.821Z,54.31
2023-09-14T15:56:23.169Z,55.28
2023-09-14T15:59:26.020Z,52.44
2023-09-14T16:02:29.164Z,52.98
2023-09-14T16:05:33.644Z,53.26
2023-09-14T16:08:36.690Z,52.56
2023-09-14T16:11:39.634Z,53.02
2023-09-14T16:14:42.929Z,52.25
2023-09-14T16:17:45.910Z,51.02
2023-09-14T16:20:50.348Z,51.03
2023-09-14T16:23:53.164Z,51.32
2023-09-14T16:26:56.047Z,50.02
2023-09-14T16:29:58.999Z,50.11
2023-09-14T16:33:02.084Z,50.71
2023-09-14T16:36:07.022Z,51.62
2023-09-14T16:39:09.824Z,52.30
2023-09-14T16:42:12.814Z,53.62
2023-09-14T16:45:15.810Z,54.87
2023-09-14T16:48:18.791Z,56.68
2023-09-14T16:51:24.928Z,58.90
2023-09-14T16:54:30.068Z,60.27
2023-09-14T16:57:33.148Z,60.45
2023-09-14T17:00:38.624Z,61.68
2023-09-14T17:03:41.814Z,62.11
2023-09-14T17:06:46.509Z,62.39
2023-09-14T17:09:49.488Z,63.43
2023-09-14T17:12:54.467Z,64.18
2023-09-14T17:15:57.602Z,65.54
2023-09-14T17:19:00.597Z,66.04
2023-09-14T17:22:06.432Z,66.90
2023-09-14T17:25:10.180Z,67.04
2023-09-14T17:28:13.126Z,67.35
2023-09-14T17:31:16.706Z,68.18
2023-09-14T17:34:20.909Z,68.41
2023-09-14T17:37:26.268Z,67.85
2023-09-14T17:40:29.136Z,67.73
2023-09-14T17:43:32.378Z,67.64
2023-09-14T17:46:35.801Z,67.98
2023-09-14T17:49:38.735Z,67.97
2023-09-14T17:52:43.712Z,68.33
2023-09-14T17:55:46.617Z,67.84
2023-09-14T17:58:50.577Z,68.32
2023-09-14T18:01:53.384Z,68.41
2023-09-14T18:04:56.179Z,68.83
2023-09-14T18:08:00.983Z,68.96
2023-09-14T18:11:04.274Z,69.19
2023-09-14T18:14:07.709Z,69.27
2023-09-14T18:17:10.911Z,69.34
2023-09-14T18:20:16.878Z,69.55
2023-09-14T18:23:28.840Z,69.85
2023-09-14T18:26:32.804Z,70.14
2023-09-14T18:29:38.457Z,70.60
2023-09-14T18:32:52.527Z,70.55
2023-09-14T18:35:56.116Z,70.68
2023-09-14T18:39:00.304Z,71.32
2023-09-14T18:42:03.479Z,71.45
2023-09-14T18:45:07.686Z,72.08
2023-09-14T18:48:13.728Z,72.00
2023-09-14T18:51:17.821Z,72.49
2023-09-14T18:54:22.271Z,71.64
2023-09-14T18:57:25.281Z,71.46
2023-09-14T19:00:28.136Z,71.33
2023-09-14T19:03:31.257Z,71.80
2023-09-14T19:06:34.273Z,71.36
2023-09-14T19:09:38.592Z,72.18
2023-09-14T19:12:43.542Z,72.05
2023-09-14T19:15:46.744Z,72.46
2023-09-14T19:18:50.127Z,73.38
2023-09-14T19:21:53.927Z,72.72
2023-09-14T19:24:58.702Z,72.48
2023-09-14T19:28:01.881Z,72.50
2023-09-14T19:31:05.344Z,72.99
2023-09-14T19:34:08.594Z,72.58
2023-09-14T19:37:12.558Z,72.49
2023-09-14T19:40:16.986Z,72.91
2023-09-14T19:43:19.988Z,73.42
2023-09-14T19:46:23.026Z,73.08
2023-09-14T19:49:26.109Z,73.75
2023-09-14T19:52:29.662Z,73.74
2023-09-14T19:55:34.022Z,73.82
2023-09-14T19:58:37.891Z,73.57
2023-09-14T20:01:41.310Z,73.65
2023-09-14T20:04:44.095Z,73.19
2023-09-14T20:07:47.997Z,74.50
2023-09-14T20:10:52.603Z,74.10
2023-09-14T20:13:55.843Z,74.69
2023-09-14T20:16:59.033Z,74.76
2023-09-14T20:20:06.553Z,74.57
2023-09-14T20:23:10.908Z,74.77
2023-09-14T20:26:15.192Z,74.61
2023-09-14T20:29:17.908Z,74.59
2023-09-14T20:32:20.785Z,75.08
2023-09-14T20:35:23.900Z,75.51
2023-09-14T20:38:27.068Z,75.83
2023-09-14T20:41:33.526Z,75.70
2023-09-14T20:44:36.490Z,76.19
2023-09-14T20:47:40.512Z,76.58
2023-09-14T20:50:43.866Z,75.88
2023-09-14T20:53:47.101Z,76.71
2023-09-14T20:56:51.324Z,77.47
2023-09-14T20:59:54.711Z,77.92
2023-09-14T21:02:57.724Z,77.33
2023-09-14T21:06:01.571Z,78.05
2023-09-14T21:09:04.320Z,78.08
2023-09-14T21:12:09.586Z,78.12
2023-09-14T21:15:12.574Z,78.94
2023-09-14T21:18:15.328Z,78.50
2023-09-14T21:21:19.368Z,78.48
2023-09-14T21:24:22.257Z,78.41
2023-09-14T21:27:27.699Z,78.57
2023-09-14T21:30:30.680Z,78.63
2023-09-14T21:33:33.609Z,78.79
2023-09-14T21:36:36.530Z,78.79
2023-09-14T21:39:39.420Z,78.93
2023-09-14T21:42:43.670Z,79.08
2023-09-14T21:45:49.881Z,79.26
2023-09-14T21:48:52.879Z,79.40
2023-09-14T21:51:55.634Z,78.80
2023-09-14T21:54:58.689Z,79.05
2023-09-14T21:58:03.051Z,78.77
2023-09-14T22:01:05.912Z,79.44
2023-09-14T22:04:08.740Z,80.08
2023-09-14T22:07:11.758Z,79.95
2023-09-14T22:10:14.761Z,79.70
2023-09-14T22:13:19.757Z,80.45
2023-09-14T22:16:22.626Z,79.62
2023-09-14T22:19:26.827Z,79.41
2023-09-14T22:22:29.553Z,80.01
2023-09-14T22:25:34.196Z,79.91
2023-09-14T22:28:38.549Z,80.65
2023-09-14T22:31:41.434Z,79.64
2023-09-14T22:34:44.488Z,79.95
2023-09-14T22:37:51.246Z,80.64
2023-09-14T22:40:54.522Z,80.45
2023-09-14T22:43:58.692Z,80.61
2023-09-14T22:47:01.569Z,81.02
2023-09-14T22:50:05.245Z,80.86
2023-09-14T22:53:08.251Z,81.55
2023-09-14T22:56:16.063Z,81.85
2023-09-14T22:59:20.977Z,83.15
2023-09-14T23:02:23.909Z,82.80
2023-09-14T23:05:27.980Z,83.00
2023-09-14T23:08:30.835Z,83.43
2023-09-14T23:11:41.049Z,83.47
2023-09-14T23:14:45.340Z,83.94
2023-09-14T23:17:48.567Z,83.10
2023-09-14T23:20:52.669Z,82.31
2023-09-14T23:23:56.667Z,82.33
2023-09-14T23:27:00.128Z,82.98
2023-09-14T23:30:06.929Z,83.32
2023-09-14T23:33:09.614Z,82.55
2023-09-14T23:36:13.809Z,81.96
2023-09-14T23:39:18.995Z,82.80
2023-09-14T23:42:21.770Z,82.87
2023-09-14T23:45:26.699Z,82.89
2023-09-14T23:48:29.665Z,82.76
2023-09-14T23:51:32.694Z,83.17
2023-09-14T23:54:35.554Z,83.08
2023-09-14T23:57:38.688Z,83.04
